createdAt,value
2024-03-24T00:00:05.903Z,58.04
2024-03-24T00:05:34.651Z,58.12
2024-03-24T00:10:37.548Z,57.94
2024-03-24T00:15:40.514Z,57.81
2024-03-24T00:20:43.514Z,57.68
2024-03-24T00:25:46.499Z,57.45
2024-03-24T00:30:49.551Z,57.08
2024-03-24T00:35:52.427Z,56.79
2024-03-24T00:40:55.664Z,56.93
2024-03-24T00:45:58.819Z,56.58
2024-03-24T00:51:01.947Z,56.19
2024-03-24T00:56:05.397Z,55.93
2024-03-24T01:01:08.868Z,56.16
2024-03-24T01:06:11.932Z,56.09
2024-03-24T01:11:15.355Z,56.27
2024-03-24T01:16:18.174Z,56.24
2024-03-24T01:21:21.309Z,56.15
2024-03-24T01:26:25.008Z,56.37
2024-03-24T01:31:27.980Z,56.32
2024-03-24T01:36:31.538Z,56.27
2024-03-24T01:41:34.440Z,56.19
2024-03-24T01:46:37.753Z,56.17
2024-03-24T01:51:40.687Z,56.48
2024-03-24T01:56:44.375Z,56.61
2024-03-24T02:01:47.437Z,56.62
2024-03-24T02:06:50.740Z,56.67
2024-03-24T02:11:53.619Z,56.68
2024-03-24T02:16:56.540Z,56.93
2024-03-24T02:21:59.458Z,56.97
2024-03-24T02:27:02.364Z,57.20
2024-03-24T02:32:05.770Z,57.09
2024-03-24T02:37:08.880Z,57.13
2024-03-24T02:42:11.843Z,57.22
2024-03-24T02:47:14.741Z,57.30
2024-03-24T02:52:17.565Z,57.37
2024-03-24T02:57:20.496Z,57.50
2024-03-24T03:02:23.332Z,57.62
2024-03-24T03:07:26.326Z,57.93
2024-03-24T03:12:29.206Z,58.10
2024-03-24T03:17:33.282Z,58.28
2024-03-24T03:22:36.291Z,58.36
2024-03-24T03:27:39.615Z,58.56
2024-03-24T03:32:42.603Z,59.15
2024-03-24T03:37:45.499Z,59.37
2024-03-24T03:42:48.376Z,59.65
2024-03-24T03:47:51.795Z,59.91
2024-03-24T03:52:56.743Z,60.34
2024-03-24T03:57:59.611Z,60.58
2024-03-24T04:03:02.637Z,60.69
2024-03-24T04:08:06.430Z,61.18
2024-03-24T04:13:09.325Z,61.40
2024-03-24T04:18:12.205Z,61.56
2024-03-24T04:23:15.065Z,61.50
2024-03-24T04:28:17.976Z,61.44
2024-03-24T04:33:20.824Z,61.70
2024-03-24T04:38:23.721Z,61.86
2024-03-24T04:43:27.769Z,61.91
2024-03-24T04:48:30.634Z,61.79
2024-03-24T04:53:33.494Z,61.80
2024-03-24T04:58:36.435Z,61.73
2024-03-24T05:03:39.373Z,61.86
2024-03-24T05:08:42.476Z,61.87
2024-03-24T05:13:48.761Z,61.83
2024-03-24T05:18:52.476Z,61.99
2024-03-24T05:23:55.464Z,62.07
2024-03-24T05:28:58.764Z,62.11
2024-03-24T05:34:01.902Z,62.37
2024-03-24T05:39:05.225Z,62.56
2024-03-24T05:44:08.168Z,62.83
2024-03-24T05:49:11.670Z,62.59
2024-03-24T05:54:14.471Z,62.42
2024-03-24T05:59:17.971Z,62.18
2024-03-24T06:04:20.962Z,61.91
2024-03-24T06:09:24.023Z,61.81
2024-03-24T06:14:26.881Z,61.60
2024-03-24T06:19:29.786Z,61.73
2024-03-24T06:24:32.735Z,61.59
2024-03-24T06:29:36.522Z,61.45
2024-03-24T06:34:39.449Z,61.03
2024-03-24T06:39:42.407Z,60.23
2024-03-24T06:44:47.659Z,60.77
2024-03-24T06:49:50.804Z,60.40
2024-03-24T06:54:54.348Z,60.41
2024-03-24T06:59:57.331Z,59.15
2024-03-24T07:05:00.406Z,58.52
2024-03-24T07:10:05.278Z,58.27
2024-03-24T07:15:09.113Z,57.64
2024-03-24T07:20:12.663Z,57.53
2024-03-24T07:25:15.926Z,58.34
2024-03-24T07:30:18.971Z,58.00
2024-03-24T07:35:22.248Z,58.48
2024-03-24T07:40:25.908Z,58.97
2024-03-24T07:45:31.726Z,59.74
2024-03-24T07:50:34.743Z,61.58
2024-03-24T07:55:37.644Z,62.43
2024-03-24T08:00:40.584Z,63.43
2024-03-24T08:05:43.447Z,63.95
2024-03-24T08:10:46.433Z,64.46
2024-03-24T08:15:49.457Z,64.93
2024-03-24T08:20:54.536Z,65.23
2024-03-24T08:25:59.426Z,64.73
2024-03-24T08:31:02.528Z,65.40
2024-03-24T08:36:06.245Z,65.41
2024-03-24T08:41:13.817Z,65.34
2024-03-24T08:46:16.856Z,65.35
2024-03-24T08:51:19.931Z,65.45
2024-03-24T08:56:22.929Z,65.48
2024-03-24T09:01:25.779Z,65.34
2024-03-24T09:06:28.781Z,64.98
2024-03-24T09:11:31.815Z,64.54
2024-03-24T09:16:37.708Z,64.79
2024-03-24T09:21:40.936Z,64.46
2024-03-24T09:26:44.295Z,65.61
2024-03-24T09:31:47.184Z,65.63
2024-03-24T09:36:50.431Z,65.78
2024-03-24T09:41:54.869Z,65.10
2024-03-24T09:47:00.720Z,64.58
2024-03-24T09:52:05.840Z,64.77
2024-03-24T09:57:08.716Z,64.86
2024-03-24T10:02:13.990Z,65.33
2024-03-24T10:07:17.261Z,65.51
2024-03-24T10:12:20.540Z,65.39
2024-03-24T10:17:23.864Z,65.02
2024-03-24T10:22:26.913Z,65.03
2024-03-24T10:27:30.963Z,64.91
2024-03-24T10:32:33.954Z,65.61
2024-03-24T10:37:37.515Z,66.10
2024-03-24T10:42:55.613Z,66.43
2024-03-24T10:48:04.763Z,67.91
2024-03-24T10:53:15.221Z,66.80
2024-03-24T10:58:21.430Z,66.95
2024-03-24T11:03:24.984Z,67.17
2024-03-24T11:08:27.963Z,65.59
2024-03-24T11:13:35.557Z,63.94
2024-03-24T11:18:38.600Z,63.13
2024-03-24T11:23:41.930Z,61.56
2024-03-24T11:28:52.215Z,60.28
2024-03-24T11:34:01.392Z,58.85
2024-03-24T11:39:07.370Z,58.05
2024-03-24T11:44:10.381Z,56.62
2024-03-24T11:49:13.284Z,55.28
2024-03-24T11:54:16.953Z,54.66
2024-03-24T11:59:21.731Z,54.08
2024-03-24T12:04:26.229Z,55.42
2024-03-24T12:09:31.926Z,57.77
2024-03-24T12:14:35.271Z,59.28
2024-03-24T12:19:38.347Z,60.99
2024-03-24T12:24:41.500Z,62.93
2024-03-24T12:29:52.571Z,64.41
2024-03-24T12:35:01.720Z,64.84
2024-03-24T12:40:05.340Z,64.97
2024-03-24T12:45:10.173Z,65.07
2024-03-24T12:50:39.157Z,64.57
2024-03-24T12:55:49.316Z,64.17
2024-03-24T13:00:53.303Z,63.97
2024-03-24T13:06:01.490Z,64.47
2024-03-24T13:11:12.128Z,63.95
2024-03-24T13:16:30.390Z,61.09
2024-03-24T13:21:38.113Z,58.12
2024-03-24T13:26:45.640Z,56.25
2024-03-24T13:31:48.875Z,54.64
2024-03-24T13:37:13.240Z,52.69
2024-03-24T13:42:32.887Z,50.54
2024-03-24T13:47:38.942Z,49.32
2024-03-24T13:52:43.708Z,46.89
2024-03-24T13:57:46.795Z,45.46
2024-03-24T14:02:50.214Z,44.19
2024-03-24T14:07:53.516Z,43.92
2024-03-24T14:13:44.548Z,44.24
2024-03-24T14:18:50.191Z,44.62
2024-03-24T14:23:57.992Z,45.25
2024-03-24T14:29:00.848Z,45.50
2024-03-24T14:34:03.884Z,46.19
2024-03-24T14:39:19.414Z,46.70
2024-03-24T14:44:44.029Z,46.83
2024-03-24T14:49:46.933Z,46.86
2024-03-24T14:54:49.803Z,47.14
2024-03-24T14:59:54.847Z,47.22
2024-03-24T15:04:58.183Z,47.85
2024-03-24T15:10:01.076Z,48.07
2024-03-24T15:15:04.861Z,48.48
2024-03-24T15:20:11.654Z,48.00
2024-03-24T15:25:14.735Z,48.07
2024-03-24T15:30:17.697Z,48.27
2024-03-24T15:35:20.691Z,48.36
2024-03-24T15:40:23.617Z,49.03
2024-03-24T15:45:26.662Z,49.24
2024-03-24T15:50:29.744Z,48.70
2024-03-24T15:55:42.488Z,47.78
2024-03-24T16:00:51.322Z,47.49
2024-03-24T16:05:54.248Z,48.07
2024-03-24T16:11:17.003Z,46.89
2024-03-24T16:16:20.155Z,46.42
2024-03-24T16:21:52.388Z,46.12
2024-03-24T16:26:55.319Z,46.26
2024-03-24T16:31:58.829Z,46.05
2024-03-24T16:37:01.744Z,46.07
2024-03-24T16:42:04.806Z,45.99
2024-03-24T16:47:07.720Z,45.25
2024-03-24T16:52:10.875Z,43.82
2024-03-24T16:57:14.055Z,43.17
2024-03-24T17:02:21.176Z,43.25
2024-03-24T17:07:24.133Z,43.25
2024-03-24T17:12:27.138Z,44.20
2024-03-24T17:17:30.103Z,44.22
2024-03-24T17:22:33.223Z,43.69
2024-03-24T17:27:36.256Z,43.69
2024-03-24T17:32:39.243Z,43.66
2024-03-24T17:37:42.576Z,43.83
2024-03-24T17:42:45.567Z,43.99
2024-03-24T17:47:48.771Z,45.25
2024-03-24T17:52:51.670Z,44.76
2024-03-24T17:57:57.070Z,44.11
2024-03-24T18:03:00.401Z,44.23
2024-03-24T18:08:22.392Z,44.68
2024-03-24T18:13:25.439Z,45.12
2024-03-24T18:18:28.376Z,44.53
2024-03-24T18:23:33.691Z,44.77
2024-03-24T18:28:40.199Z,46.06
2024-03-24T18:33:43.399Z,45.56
2024-03-24T18:38:48.145Z,45.66
2024-03-24T18:43:51.189Z,47.78
2024-03-24T18:48:54.133Z,49.04
2024-03-24T18:53:57.049Z,49.13
2024-03-24T18:58:59.970Z,48.62
2024-03-24T19:04:03.969Z,49.57
2024-03-24T19:09:09.382Z,49.93
2024-03-24T19:14:12.374Z,50.21
2024-03-24T19:19:15.583Z,50.19
2024-03-24T19:24:18.710Z,49.86
2024-03-24T19:29:21.666Z,49.20
2024-03-24T19:34:24.732Z,49.31
2024-03-24T19:39:27.646Z,49.37
2024-03-24T19:44:32.379Z,49.53
2024-03-24T19:49:37.112Z,49.48
2024-03-24T19:54:41.069Z,49.36
2024-03-24T19:59:46.337Z,49.42
2024-03-24T20:04:49.239Z,50.01
2024-03-24T20:09:55.746Z,50.33
2024-03-24T20:15:02.821Z,50.08
2024-03-24T20:20:07.922Z,50.23
2024-03-24T20:25:11.014Z,49.83
2024-03-24T20:30:14.490Z,50.00
2024-03-24T20:35:17.930Z,50.24
2024-03-24T20:40:20.966Z,50.53
2024-03-24T20:45:24.655Z,50.74
2024-03-24T20:50:30.446Z,51.05
2024-03-24T20:55:34.046Z,52.67
2024-03-24T21:00:37.135Z,52.09
2024-03-24T21:05:40.088Z,53.00
2024-03-24T21:10:45.067Z,54.90
2024-03-24T21:15:48.591Z,53.12
2024-03-24T21:20:52.411Z,53.26
2024-03-24T21:25:55.503Z,53.25
2024-03-24T21:30:58.538Z,53.25
2024-03-24T21:36:01.992Z,53.05
2024-03-24T21:41:23.636Z,54.42
2024-03-24T21:46:26.744Z,54.73
2024-03-24T21:51:29.663Z,55.12
2024-03-24T21:56:32.637Z,55.52
2024-03-24T22:01:35.516Z,55.32
2024-03-24T22:06:51.125Z,55.37
2024-03-24T22:11:59.056Z,56.36
2024-03-24T22:17:02.255Z,56.88
2024-03-24T22:22:06.300Z,57.26
2024-03-24T22:27:10.135Z,57.55
2024-03-24T22:32:13.010Z,57.36
2024-03-24T22:37:15.980Z,57.16
2024-03-24T22:42:19.346Z,57.00
2024-03-24T22:47:22.232Z,56.62
2024-03-24T22:52:25.451Z,56.22
2024-03-24T22:57:28.650Z,56.57
2024-03-24T23:02:33.155Z,56.58
2024-03-24T23:07:37.182Z,57.07
2024-03-24T23:12:40.156Z,57.23
2024-03-24T23:17:43.180Z,57.55
2024-03-24T23:22:46.024Z,58.36
2024-03-24T23:27:49.188Z,59.15
2024-03-24T23:32:52.059Z,59.50
2024-03-24T23:37:55.002Z,59.74
2024-03-24T23:42:58.064Z,60.05
2024-03-24T23:48:02.855Z,60.36
2024-03-24T23:53:05.764Z,60.53
2024-03-24T23:58:08.934Z,60.51
